createdAt,value
2022-12-19T00:00:34.711Z,99355.34
2022-12-19T00:05:41.078Z,99351.16
2022-12-19T00:10:43.559Z,99346.13
2022-12-19T00:15:45.380Z,99364.84
2022-12-19T00:21:08.655Z,99355.59
2022-12-19T00:26:14.754Z,99364.22
2022-12-19T00:31:18.830Z,99353.22
2022-12-19T00:36:23.660Z,99351.81
2022-12-19T00:41:31.054Z,99349.47
2022-12-19T00:46:34.620Z,99344.50
2022-12-19T00:51:37.719Z,99336.25
2022-12-19T00:56:43.400Z,99326.34
2022-12-19T01:01:45.591Z,99325.78
2022-12-19T01:06:49.942Z,99328.41
2022-12-19T01:12:11.086Z,99325.19
2022-12-19T01:17:13.268Z,99319.47
2022-12-19T01:22:15.237Z,99306.00
2022-12-19T01:27:16.998Z,99290.78
2022-12-19T01:32:18.742Z,99282.41
2022-12-19T01:37:20.721Z,99293.38
2022-12-19T01:42:24.179Z,99274.84
2022-12-19T01:47:26.508Z,99287.56
2022-12-19T01:52:28.436Z,99277.44
2022-12-19T01:57:30.326Z,99284.16
2022-12-19T02:02:37.327Z,99268.13
2022-12-19T02:07:41.036Z,99262.09
2022-12-19T02:12:45.444Z,99262.09
2022-12-19T02:17:54.476Z,99256.94
2022-12-19T02:23:28.750Z,99251.81
2022-12-19T02:29:01.679Z,99246.63
2022-12-19T02:34:11.654Z,99230.63
2022-12-19T02:39:32.150Z,99227.22
2022-12-19T02:44:43.160Z,99227.13
2022-12-19T02:49:45.329Z,99231.25
2022-12-19T02:54:53.605Z,99242.03
2022-12-19T03:00:08.138Z,99257.09
2022-12-19T03:05:35.825Z,99243.50
2022-12-19T03:10:45.646Z,99251.81
2022-12-19T03:15:50.051Z,99256.75
2022-12-19T03:21:08.826Z,99264.31
2022-12-19T03:26:16.689Z,99272.75
2022-12-19T03:31:22.251Z,99265.97
2022-12-19T03:36:40.259Z,99270.06
2022-12-19T03:42:03.101Z,99261.47
2022-12-19T03:47:31.284Z,99257.16
2022-12-19T03:52:38.784Z,99251.97
2022-12-19T03:57:43.150Z,99257.72
2022-12-19T04:02:53.742Z,99283.00
2022-12-19T04:08:00.908Z,99272.81
2022-12-19T04:13:14.284Z,99276.06
2022-12-19T04:18:18.587Z,99276.00
2022-12-19T04:23:32.233Z,99272.59
2022-12-19T04:28:40.736Z,99258.91
2022-12-19T04:33:42.895Z,99277.34
2022-12-19T04:38:44.685Z,99262.78
2022-12-19T04:43:46.405Z,99249.09
2022-12-19T04:48:48.131Z,99254.06
2022-12-19T04:53:52.817Z,99236.16
2022-12-19T04:58:59.212Z,99244.56
2022-12-19T05:04:04.414Z,99256.31
2022-12-19T05:09:06.631Z,99268.78
2022-12-19T05:14:09.083Z,99257.63
2022-12-19T05:19:11.149Z,99272.09
2022-12-19T05:24:13.053Z,99265.38
2022-12-19T05:29:15.849Z,99263.72
2022-12-19T05:34:17.630Z,99270.56
2022-12-19T05:39:19.409Z,99270.56
2022-12-19T05:44:21.336Z,99256.97
2022-12-19T05:49:23.358Z,99259.41
2022-12-19T05:54:27.244Z,99270.28
2022-12-19T05:59:29.122Z,99274.38
2022-12-19T06:04:31.239Z,99275.91
2022-12-19T06:09:33.133Z,99269.84
2022-12-19T06:14:34.932Z,99268.13
2022-12-19T06:19:36.797Z,99260.38
2022-12-19T06:24:38.672Z,99284.03
2022-12-19T06:29:40.467Z,99277.94
2022-12-19T06:40:04.549Z,99273.28
2022-12-19T06:45:06.942Z,99266.38
2022-12-19T06:50:08.997Z,99262.88
2022-12-19T06:55:10.976Z,99258.56
2022-12-19T07:00:14.475Z,99265.31
2022-12-19T07:05:16.720Z,99263.53
2022-12-19T07:10:18.630Z,99266.84
2022-12-19T07:15:20.711Z,99270.16
2022-12-19T07:20:22.648Z,99276.78
2022-12-19T07:25:24.611Z,99274.06
2022-12-19T07:30:26.451Z,99277.25
2022-12-19T07:35:28.789Z,99277.06
2022-12-19T07:40:30.567Z,99265.06
2022-12-19T07:45:33.548Z,99255.59
2022-12-19T07:50:35.415Z,99286.00
2022-12-19T07:55:37.255Z,99278.06
2022-12-19T08:00:39.004Z,99271.66
2022-12-19T08:05:40.815Z,99261.25
2022-12-19T08:10:42.688Z,99275.50
2022-12-19T08:15:44.491Z,99271.16
2022-12-19T08:20:46.891Z,99279.50
2022-12-19T08:25:49.044Z,99276.84
2022-12-19T08:30:50.944Z,99254.56
2022-12-19T08:35:52.849Z,99250.03
2022-12-19T08:40:54.807Z,99236.16
2022-12-19T08:45:56.905Z,99224.81
2022-12-19T08:51:04.705Z,99209.22
2022-12-19T08:56:08.031Z,99192.63
2022-12-19T09:01:16.408Z,99192.34
2022-12-19T09:06:19.495Z,99200.41
2022-12-19T09:11:21.750Z,99193.13
2022-12-19T09:16:26.057Z,99196.28
2022-12-19T09:21:30.069Z,99187.47
2022-12-19T09:26:33.592Z,99196.56
2022-12-19T09:31:35.799Z,99176.03
2022-12-19T09:36:37.883Z,99168.31
2022-12-19T09:41:59.161Z,99174.84
2022-12-19T09:47:13.425Z,99171.19
2022-12-19T09:52:27.308Z,99179.28
2022-12-19T09:57:49.940Z,99165.34
2022-12-19T10:03:03.197Z,99169.28
2022-12-19T10:08:17.711Z,99170.63
2022-12-19T10:13:47.919Z,99155.69
2022-12-19T10:19:00.671Z,99162.94
2022-12-19T10:24:11.616Z,99155.16
2022-12-19T10:29:41.252Z,99142.22
2022-12-19T10:34:45.790Z,99134.56
2022-12-19T10:40:07.344Z,99137.06
2022-12-19T10:45:18.001Z,99144.34
2022-12-19T10:50:26.638Z,99128.63
2022-12-19T10:55:54.084Z,99126.59
2022-12-19T11:01:05.329Z,99122.69
2022-12-19T11:06:28.368Z,99119.88
2022-12-19T11:12:43.875Z,99121.72
2022-12-19T11:25:38.194Z,99102.47
2022-12-19T11:29:41.631Z,99097.03
2022-12-19T11:30:09.927Z,99077.66
2022-12-19T11:33:18.764Z,99077.91
2022-12-19T11:38:42.549Z,99062.81
2022-12-19T11:44:02.126Z,99073.03
2022-12-19T11:49:15.603Z,99062.66
2022-12-19T11:54:20.384Z,99065.88
2022-12-19T11:59:30.680Z,99067.53
2022-12-19T12:04:57.325Z,99053.50
2022-12-19T12:16:26.185Z,99048.41
2022-12-19T12:26:38.382Z,99042.56
2022-12-19T12:31:32.292Z,99035.06
2022-12-19T12:32:02.056Z,99023.09
2022-12-19T12:35:51.342Z,99022.03
2022-12-19T12:38:35.661Z,99020.88
2022-12-19T12:44:05.081Z,99018.91
2022-12-19T12:49:33.624Z,98999.22
2022-12-19T12:54:42.841Z,99002.59
2022-12-19T12:59:46.532Z,99006.88
2022-12-19T13:04:59.309Z,98999.22
2022-12-19T13:10:12.902Z,98995.84
2022-12-19T13:15:31.942Z,98989.72
2022-12-19T13:20:46.183Z,98994.09
2022-12-19T13:25:54.122Z,98989.81
2022-12-19T13:31:21.075Z,98987.25
2022-12-19T13:39:52.337Z,98995.59
2022-12-19T13:42:46.149Z,98987.34
2022-12-19T13:47:51.229Z,98982.56
2022-12-19T13:52:53.601Z,98982.00
2022-12-19T13:57:56.811Z,98977.97
2022-12-19T14:03:00.636Z,98967.81
2022-12-19T14:08:05.354Z,98984.22
2022-12-19T14:14:02.001Z,98974.09
2022-12-19T14:19:27.920Z,98962.38
2022-12-19T14:24:29.764Z,98974.34
2022-12-19T14:30:26.402Z,98972.59
2022-12-19T14:36:07.760Z,98969.88
2022-12-19T14:40:29.134Z,98960.09
2022-12-19T14:53:51.855Z,98970.88
2022-12-19T14:54:21.240Z,98972.59
2022-12-19T14:57:01.052Z,98964.84
2022-12-19T15:02:27.914Z,98970.63
2022-12-19T15:07:35.737Z,98969.78
2022-12-19T15:14:58.724Z,98967.31
2022-12-19T15:19:00.351Z,98965.59
2022-12-19T15:24:02.195Z,98964.78
2022-12-19T15:29:14.133Z,98969.63
2022-12-19T15:34:36.207Z,98977.94
2022-12-19T15:39:40.995Z,98971.09
2022-12-19T15:44:44.631Z,98963.53
2022-12-19T15:49:47.290Z,98956.84
2022-12-19T15:54:50.631Z,98957.59
2022-12-19T15:59:53.640Z,98941.38
2022-12-19T16:05:03.529Z,98943.00
2022-12-19T16:10:07.382Z,98936.81
2022-12-19T16:15:26.613Z,98927.34
2022-12-19T16:20:31.762Z,98909.28
2022-12-19T16:25:41.353Z,98917.94
2022-12-19T16:30:44.638Z,98922.97
2022-12-19T16:36:04.601Z,98921.16
2022-12-19T16:41:17.738Z,98916.94
2022-12-19T16:46:23.577Z,98928.97
2022-12-19T16:51:28.356Z,98922.22
2022-12-19T16:56:34.978Z,98941.75
2022-12-19T17:01:36.893Z,98946.03
2022-12-19T17:06:38.681Z,98932.38
2022-12-19T17:11:41.836Z,98930.72
2022-12-19T17:16:44.359Z,98924.63
2022-12-19T17:21:46.224Z,98929.56
2022-12-19T17:26:48.097Z,98929.56
2022-12-19T17:31:49.982Z,98927.91
2022-12-19T17:36:52.064Z,98933.00
2022-12-19T17:41:57.715Z,98919.50
2022-12-19T17:47:00.876Z,98924.63
2022-12-19T17:52:02.718Z,98916.03
2022-12-19T17:57:04.651Z,98926.09
2022-12-19T18:02:19.944Z,98910.09
2022-12-19T18:07:21.841Z,98910.94
2022-12-19T18:12:23.861Z,98917.69
2022-12-19T18:17:26.170Z,98917.59
2022-12-19T18:22:27.993Z,98904.00
2022-12-19T18:27:32.094Z,98922.63
2022-12-19T18:32:33.931Z,98911.50
2022-12-19T18:37:38.191Z,98916.59
2022-12-19T18:42:40.111Z,98902.84
2022-12-19T18:47:46.924Z,98902.84
2022-12-19T18:52:53.896Z,98905.31
2022-12-19T18:57:56.118Z,98912.88
2022-12-19T19:03:08.062Z,98904.22
2022-12-19T19:08:23.742Z,98896.47
2022-12-19T19:13:36.611Z,98889.44
2022-12-19T19:18:43.717Z,98863.72
2022-12-19T19:23:48.360Z,98856.03
2022-12-19T19:28:52.380Z,98867.19
2022-12-19T19:34:00.378Z,98888.53
2022-12-19T19:39:03.325Z,98894.19
2022-12-19T19:44:05.231Z,98893.19
2022-12-19T19:49:07.781Z,98900.69
2022-12-19T19:54:09.974Z,98892.19
2022-12-19T19:59:11.732Z,98893.13
2022-12-19T20:04:15.004Z,98891.66
2022-12-19T20:09:17.351Z,98879.44
2022-12-19T20:14:19.228Z,98867.56
2022-12-19T20:19:21.132Z,98855.13
2022-12-19T20:24:22.966Z,98836.50
2022-12-19T20:29:25.616Z,98830.66
2022-12-19T20:34:27.458Z,98833.22
2022-12-19T20:39:29.272Z,98831.31
2022-12-19T20:44:31.123Z,98821.00
2022-12-19T20:49:32.994Z,98827.56
2022-12-19T20:54:34.795Z,98823.19
2022-12-19T20:59:36.506Z,98819.81
2022-12-19T21:04:38.620Z,98812.06
2022-12-19T21:09:44.942Z,98812.88
2022-12-19T21:14:47.101Z,98794.88
2022-12-19T21:19:49.019Z,98799.91
2022-12-19T21:24:50.890Z,98806.75
2022-12-19T21:29:52.823Z,98822.19
2022-12-19T21:34:54.702Z,98820.38
2022-12-19T21:39:56.544Z,98823.91
2022-12-19T21:44:58.422Z,98814.59
2022-12-19T21:50:00.681Z,98818.81
2022-12-19T21:55:03.364Z,98797.72
2022-12-19T22:00:07.398Z,98818.34
2022-12-19T22:05:09.310Z,98806.47
2022-12-19T22:10:11.353Z,98814.22
2022-12-19T22:15:13.225Z,98804.84
2022-12-19T22:20:15.583Z,98813.59
2022-12-19T22:25:17.647Z,98817.31
2022-12-19T22:30:19.683Z,98821.69
2022-12-19T22:35:21.405Z,98830.28
2022-12-19T22:40:23.322Z,98816.78
2022-12-19T22:45:25.653Z,98834.00
2022-12-19T22:50:27.543Z,98851.97
2022-12-19T22:55:29.271Z,98848.97
2022-12-19T23:00:31.007Z,98859.34
2022-12-19T23:05:36.593Z,98858.69
2022-12-19T23:10:38.371Z,98862.34
2022-12-19T23:15:42.918Z,98858.88
2022-12-19T23:20:44.675Z,98854.59
2022-12-19T23:25:46.430Z,98834.97
2022-12-19T23:30:48.244Z,98839.25
2022-12-19T23:35:50.025Z,98848.84
2022-12-19T23:40:51.775Z,98865.97
2022-12-19T23:45:53.669Z,98858.31
2022-12-19T23:51:04.339Z,98849.09
2022-12-19T23:56:12.451Z,98827.09
